createdAt,value
2023-05-07T00:00:29.593Z,28.64
2023-05-07T00:00:59.710Z,28.63
2023-05-07T00:01:29.930Z,28.66
2023-05-07T00:01:59.903Z,28.63
2023-05-07T00:02:30.127Z,28.63
2023-05-07T00:03:00.354Z,28.63
2023-05-07T00:03:30.334Z,28.63
2023-05-07T00:04:00.485Z,28.63
2023-05-07T00:04:30.372Z,28.63
2023-05-07T00:05:00.529Z,28.64
2023-05-07T00:05:30.434Z,28.64
2023-05-07T00:06:00.427Z,28.64
2023-05-07T00:06:30.552Z,28.64
2023-05-07T00:07:00.646Z,28.61
2023-05-07T00:07:30.757Z,28.64
2023-05-07T00:08:00.767Z,28.61
2023-05-07T00:08:30.828Z,28.63
2023-05-07T00:09:00.840Z,28.64
2023-05-07T00:09:30.870Z,28.64
2023-05-07T00:10:00.861Z,28.64
2023-05-07T00:10:30.971Z,28.63
2023-05-07T00:11:01.117Z,28.63
2023-05-07T00:11:31.090Z,28.64
2023-05-07T00:12:01.212Z,28.64
2023-05-07T00:12:31.324Z,28.64
2023-05-07T00:13:01.493Z,28.63
2023-05-07T00:13:31.448Z,28.64
2023-05-07T00:14:01.571Z,28.64
2023-05-07T00:14:31.576Z,28.61
2023-05-07T00:15:01.678Z,28.63
2023-05-07T00:15:31.671Z,28.63
2023-05-07T00:16:01.812Z,28.61
2023-05-07T00:16:31.956Z,28.64
2023-05-07T00:17:02.035Z,28.61
2023-05-07T00:17:32.059Z,28.63
2023-05-07T00:18:02.100Z,28.64
2023-05-07T00:18:32.135Z,28.61
2023-05-07T00:19:02.251Z,28.61
2023-05-07T00:19:32.352Z,28.63
2023-05-07T00:20:02.366Z,28.61
2023-05-07T00:21:02.433Z,28.61
2023-05-07T00:21:32.419Z,28.60
2023-05-07T00:22:02.428Z,28.60
2023-05-07T00:22:32.436Z,28.61
2023-05-07T00:23:32.545Z,28.61
2023-05-07T00:24:02.514Z,28.63
2023-05-07T00:24:32.514Z,28.61
2023-05-07T00:25:02.675Z,28.63
2023-05-07T00:25:32.680Z,28.61
2023-05-07T00:26:02.682Z,28.61
2023-05-07T00:26:32.793Z,28.61
2023-05-07T00:27:02.909Z,28.60
2023-05-07T00:27:33.010Z,28.61
2023-05-07T00:28:03.087Z,28.61
2023-05-07T00:28:33.167Z,28.60
2023-05-07T00:29:03.257Z,28.61
2023-05-07T00:29:33.337Z,28.61
2023-05-07T00:30:03.435Z,28.61
2023-05-07T00:30:33.530Z,28.60
2023-05-07T00:31:03.613Z,28.60
2023-05-07T00:31:33.735Z,28.60
2023-05-07T00:32:03.757Z,28.58
2023-05-07T00:32:33.897Z,28.60
2023-05-07T00:33:03.860Z,28.58
2023-05-07T00:34:03.866Z,28.58
2023-05-07T00:34:33.949Z,28.60
2023-05-07T00:35:04.030Z,28.60
2023-05-07T00:35:34.113Z,28.60
2023-05-07T00:36:04.202Z,28.61
2023-05-07T00:36:34.295Z,28.61
2023-05-07T00:37:06.530Z,28.60
2023-05-07T00:37:34.304Z,28.60
2023-05-07T00:38:04.298Z,28.60
2023-05-07T00:38:34.416Z,28.61
2023-05-07T00:39:04.489Z,28.61
2023-05-07T00:39:34.486Z,28.61
2023-05-07T00:40:04.605Z,28.60
2023-05-07T00:40:34.741Z,28.60
2023-05-07T00:41:04.753Z,28.60
2023-05-07T00:41:34.744Z,28.60
2023-05-07T00:42:04.879Z,28.61
2023-05-07T00:42:34.872Z,28.60
2023-05-07T00:43:34.950Z,28.58
2023-05-07T00:44:05.081Z,28.60
2023-05-07T00:44:35.181Z,28.58
2023-05-07T00:45:05.305Z,28.61
2023-05-07T00:45:35.463Z,28.58
2023-05-07T00:46:05.452Z,28.60
2023-05-07T00:46:35.509Z,28.58
2023-05-07T00:47:05.539Z,28.58
2023-05-07T00:47:35.824Z,28.61
2023-05-07T00:48:05.613Z,28.58
2023-05-07T00:49:05.696Z,28.60
2023-05-07T00:49:35.811Z,28.58
2023-05-07T00:50:05.941Z,28.58
2023-05-07T00:50:35.949Z,28.57
2023-05-07T00:51:36.027Z,28.61
2023-05-07T00:52:06.017Z,28.58
2023-05-07T00:52:36.137Z,28.58
2023-05-07T00:53:06.259Z,28.57
2023-05-07T00:53:36.252Z,28.58
2023-05-07T00:54:36.328Z,28.58
2023-05-07T00:55:06.339Z,28.58
2023-05-07T00:55:36.341Z,28.57
2023-05-07T00:56:06.460Z,28.58
2023-05-07T00:56:36.450Z,28.57
2023-05-07T00:57:36.530Z,28.57
2023-05-07T00:58:06.535Z,28.60
2023-05-07T00:59:06.669Z,28.57
2023-05-07T00:59:36.676Z,28.58
2023-05-07T01:00:06.672Z,28.57
2023-05-07T01:01:06.801Z,28.55
2023-05-07T01:01:36.819Z,28.55
2023-05-07T01:02:06.860Z,28.57
2023-05-07T01:02:37.038Z,28.58
2023-05-07T01:03:07.170Z,28.57
2023-05-07T01:03:37.062Z,28.57
2023-05-07T01:04:37.400Z,28.54
2023-05-07T01:05:07.333Z,28.55
2023-05-07T01:05:37.406Z,28.57
2023-05-07T01:06:07.457Z,28.57
2023-05-07T01:06:37.500Z,28.57
2023-05-07T01:07:07.605Z,28.57
2023-05-07T01:07:37.706Z,28.54
2023-05-07T01:08:07.849Z,28.57
2023-05-07T01:08:37.836Z,28.57
2023-05-07T01:09:07.835Z,28.55
2023-05-07T01:10:07.978Z,28.57
2023-05-07T01:10:37.973Z,28.54
2023-05-07T01:11:08.094Z,28.57
2023-05-07T01:11:38.212Z,28.57
2023-05-07T01:12:08.219Z,28.57
2023-05-07T01:12:38.335Z,28.55
2023-05-07T01:13:08.512Z,28.57
2023-05-07T01:13:38.565Z,28.54
2023-05-07T01:14:08.528Z,28.55
2023-05-07T01:14:38.644Z,28.55
2023-05-07T01:15:08.642Z,28.57
2023-05-07T01:16:08.725Z,28.55
2023-05-07T01:16:38.747Z,28.57
2023-05-07T01:17:08.758Z,28.55
2023-05-07T01:17:38.853Z,28.55
2023-05-07T01:18:08.962Z,28.55
2023-05-07T01:18:38.963Z,28.54
2023-05-07T01:19:08.929Z,28.57
2023-05-07T01:20:09.266Z,28.55
2023-05-07T01:20:39.099Z,28.57
2023-05-07T01:21:09.208Z,28.55
2023-05-07T01:21:39.247Z,28.55
2023-05-07T01:22:09.221Z,28.54
2023-05-07T01:22:39.227Z,28.55
2023-05-07T01:23:09.226Z,28.55
2023-05-07T01:23:39.341Z,28.57
2023-05-07T01:24:09.465Z,28.52
2023-05-07T01:24:39.587Z,28.55
2023-05-07T01:25:09.586Z,28.55
2023-05-07T01:26:09.653Z,28.54
2023-05-07T01:26:39.656Z,28.55
2023-05-07T01:27:09.758Z,28.55
2023-05-07T01:27:39.835Z,28.52
2023-05-07T01:28:09.918Z,28.52
2023-05-07T01:28:40.465Z,28.54
2023-05-07T01:29:10.088Z,28.52
2023-05-07T01:29:40.171Z,28.51
2023-05-07T01:30:10.453Z,28.54
2023-05-07T01:30:40.260Z,28.54
2023-05-07T01:31:10.377Z,28.55
2023-05-07T01:31:40.413Z,28.52
2023-05-07T01:32:10.497Z,28.52
2023-05-07T01:32:40.594Z,28.55
2023-05-07T01:33:10.679Z,28.54
2023-05-07T01:33:40.874Z,28.52
2023-05-07T01:34:10.809Z,28.55
2023-05-07T01:34:40.888Z,28.54
2023-05-07T01:35:10.981Z,28.52
2023-05-07T01:35:41.074Z,28.52
2023-05-07T01:36:11.132Z,28.52
2023-05-07T01:36:41.225Z,28.52
2023-05-07T01:37:11.233Z,28.54
2023-05-07T01:38:11.315Z,28.52
2023-05-07T01:38:41.297Z,28.51
2023-05-07T01:39:41.385Z,28.52
2023-05-07T01:40:11.673Z,28.51
2023-05-07T01:40:41.600Z,28.52
2023-05-07T01:41:11.613Z,28.51
2023-05-07T01:41:41.620Z,28.51
2023-05-07T01:42:11.626Z,28.52
2023-05-07T01:42:41.743Z,28.52
2023-05-07T01:43:11.862Z,28.51
2023-05-07T01:43:41.978Z,28.51
2023-05-07T01:44:11.974Z,28.52
2023-05-07T01:45:12.048Z,28.51
2023-05-07T01:45:42.055Z,28.52
2023-05-07T01:46:12.094Z,28.52
2023-05-07T01:46:42.203Z,28.52
2023-05-07T01:47:12.119Z,28.52
2023-05-07T01:47:42.175Z,28.51
2023-05-07T01:48:12.157Z,28.52
2023-05-07T01:48:42.157Z,28.51
2023-05-07T01:49:12.249Z,28.52
2023-05-07T01:49:42.208Z,28.51
2023-05-07T01:50:12.543Z,28.52
2023-05-07T01:50:42.454Z,28.50
2023-05-07T01:51:12.438Z,28.51
2023-05-07T01:51:42.553Z,28.52
2023-05-07T01:52:12.679Z,28.51
2023-05-07T01:52:42.668Z,28.48
2023-05-07T01:53:12.787Z,28.52
2023-05-07T01:53:42.778Z,28.48
2023-05-07T01:54:42.863Z,28.52
2023-05-07T01:55:12.873Z,28.51
2023-05-07T01:55:42.870Z,28.51
2023-05-07T01:56:42.961Z,28.51
2023-05-07T01:57:13.001Z,28.51
2023-05-07T01:57:43.109Z,28.52
2023-05-07T01:58:13.107Z,28.51
2023-05-07T01:59:13.179Z,28.51
2023-05-07T01:59:43.200Z,28.50
2023-05-07T02:00:13.483Z,28.52
2023-05-07T02:00:43.240Z,28.52
2023-05-07T02:01:13.427Z,28.50
2023-05-07T02:01:43.499Z,28.50
2023-05-07T02:02:13.616Z,28.52
2023-05-07T02:02:43.806Z,28.51
2023-05-07T02:03:13.822Z,28.51
2023-05-07T02:03:43.828Z,28.51
2023-05-07T02:04:14.039Z,28.51
2023-05-07T02:04:43.912Z,28.50
2023-05-07T02:05:13.911Z,28.50
2023-05-07T02:05:44.033Z,28.50
2023-05-07T02:06:14.142Z,28.50
2023-05-07T02:06:44.130Z,28.50
2023-05-07T02:07:14.155Z,28.51
2023-05-07T02:07:44.268Z,28.48
2023-05-07T02:08:14.264Z,28.48
2023-05-07T02:08:44.282Z,28.48
2023-05-07T02:09:14.386Z,28.48
2023-05-07T02:09:44.513Z,28.50
2023-05-07T02:10:14.511Z,28.50
2023-05-07T02:10:44.640Z,28.51
2023-05-07T02:11:14.752Z,28.50
2023-05-07T02:11:44.733Z,28.48
2023-05-07T02:12:14.775Z,28.51
2023-05-07T02:12:44.803Z,28.47
2023-05-07T02:13:14.849Z,28.50
2023-05-07T02:13:44.866Z,28.48
2023-05-07T02:14:14.862Z,28.48
2023-05-07T02:15:14.942Z,28.47
2023-05-07T02:15:44.940Z,28.47
2023-05-07T02:16:15.092Z,28.50
2023-05-07T02:16:45.139Z,28.47
2023-05-07T02:17:15.125Z,28.48
2023-05-07T02:17:45.248Z,28.48
2023-05-07T02:18:15.353Z,28.50
2023-05-07T02:18:45.364Z,28.48
2023-05-07T02:19:15.357Z,28.48
2023-05-07T02:19:45.480Z,28.50
2023-05-07T02:20:15.443Z,28.48
2023-05-07T02:21:15.519Z,28.48
2023-05-07T02:21:45.513Z,28.47
2023-05-07T02:22:45.587Z,28.47
2023-05-07T02:23:15.585Z,28.47
2023-05-07T02:24:15.670Z,28.48
2023-05-07T02:24:45.789Z,28.47
2023-05-07T02:25:15.776Z,28.46
2023-05-07T02:25:45.895Z,28.47
2023-05-07T02:26:16.005Z,28.46
2023-05-07T02:26:46.115Z,28.47
2023-05-07T02:27:16.196Z,28.50
2023-05-07T02:27:46.286Z,28.46
2023-05-07T02:28:16.366Z,28.47
2023-05-07T02:28:46.467Z,28.47
2023-05-07T02:29:16.538Z,28.46
2023-05-07T02:29:46.612Z,28.46
2023-05-07T02:30:16.690Z,28.48
2023-05-07T02:30:46.775Z,28.47
2023-05-07T02:31:16.853Z,28.47
2023-05-07T02:31:46.967Z,28.44
2023-05-07T02:32:17.089Z,28.47
2023-05-07T02:32:47.111Z,28.44
2023-05-07T02:33:17.093Z,28.47
2023-05-07T02:33:47.174Z,28.47
2023-05-07T02:34:17.261Z,28.47
2023-05-07T02:34:47.435Z,28.46
2023-05-07T02:35:17.354Z,28.46
2023-05-07T02:36:17.480Z,28.44
2023-05-07T02:36:47.571Z,28.43
2023-05-07T02:37:17.576Z,28.46
2023-05-07T02:37:47.576Z,28.43
2023-05-07T02:38:47.670Z,28.44
2023-05-07T02:39:17.662Z,28.44
2023-05-07T02:39:47.778Z,28.44
2023-05-07T02:40:17.773Z,28.44
2023-05-07T02:41:17.841Z,28.43
2023-05-07T02:41:47.898Z,28.46
2023-05-07T02:42:17.881Z,28.44
2023-05-07T02:43:17.959Z,28.43
2023-05-07T02:43:47.960Z,28.43
2023-05-07T02:44:48.032Z,28.44
2023-05-07T02:45:18.149Z,28.46
2023-05-07T02:45:48.392Z,28.44
2023-05-07T02:46:18.394Z,28.43
2023-05-07T02:46:48.323Z,28.44
2023-05-07T02:47:18.306Z,28.44
2023-05-07T02:47:48.478Z,28.44
2023-05-07T02:48:18.453Z,28.44
2023-05-07T02:48:48.451Z,28.46
2023-05-07T02:49:48.528Z,28.44
2023-05-07T02:50:18.608Z,28.43
2023-05-07T02:50:48.580Z,28.43
2023-05-07T02:51:18.708Z,28.43
2023-05-07T02:51:48.699Z,28.44
2023-05-07T02:52:48.776Z,28.43
2023-05-07T02:53:18.885Z,28.39
2023-05-07T02:53:48.882Z,28.43
2023-05-07T02:54:19.000Z,28.43
2023-05-07T02:54:49.114Z,28.44
2023-05-07T02:55:19.250Z,28.41
2023-05-07T02:55:49.374Z,28.43
2023-05-07T02:56:19.398Z,28.41
2023-05-07T02:57:19.444Z,28.39
2023-05-07T02:57:49.560Z,28.43
2023-05-07T02:58:19.682Z,28.41
2023-05-07T02:58:49.681Z,28.40
2023-05-07T02:59:49.762Z,28.41
2023-05-07T03:00:19.765Z,28.41
2023-05-07T03:00:49.807Z,28.41
2023-05-07T03:01:19.863Z,28.40
2023-05-07T03:01:50.025Z,28.40
2023-05-07T03:02:19.878Z,28.40
2023-05-07T03:02:50.035Z,28.39
2023-05-07T03:03:20.060Z,28.40
2023-05-07T03:03:50.253Z,28.40
2023-05-07T03:04:20.274Z,28.43
2023-05-07T03:04:50.253Z,28.40
2023-05-07T03:05:20.381Z,28.40
2023-05-07T03:05:50.498Z,28.37
2023-05-07T03:06:20.474Z,28.41
2023-05-07T03:06:50.591Z,28.40
2023-05-07T03:07:20.582Z,28.40
2023-05-07T03:07:50.703Z,28.40
2023-05-07T03:08:20.901Z,28.39
2023-05-07T03:08:50.930Z,28.37
2023-05-07T03:09:20.919Z,28.40
2023-05-07T03:09:51.050Z,28.40
2023-05-07T03:10:21.035Z,28.40
2023-05-07T03:11:21.121Z,28.39
2023-05-07T03:11:51.243Z,28.40
2023-05-07T03:12:21.233Z,28.37
2023-05-07T03:12:51.373Z,28.37
2023-05-07T03:13:21.486Z,28.39
2023-05-07T03:13:51.373Z,28.39
2023-05-07T03:14:21.375Z,28.36
2023-05-07T03:14:51.376Z,28.37
2023-05-07T03:15:21.531Z,28.37
2023-05-07T03:15:51.531Z,28.40
2023-05-07T03:16:21.558Z,28.34
2023-05-07T03:16:51.542Z,28.36
2023-05-07T03:17:21.542Z,28.36
2023-05-07T03:17:51.699Z,28.37
2023-05-07T03:18:21.834Z,28.36
2023-05-07T03:18:51.815Z,28.37
2023-05-07T03:19:21.826Z,28.36
2023-05-07T03:19:51.818Z,28.37
2023-05-07T03:20:22.007Z,28.34
2023-05-07T03:20:51.950Z,28.34
2023-05-07T03:21:22.082Z,28.36
2023-05-07T03:21:52.074Z,28.39
2023-05-07T03:22:52.147Z,28.36
2023-05-07T03:23:24.483Z,28.36
2023-05-07T03:23:52.385Z,28.34
2023-05-07T03:24:22.383Z,28.34
2023-05-07T03:25:22.471Z,28.33
2023-05-07T03:25:52.462Z,28.36
2023-05-07T03:26:52.525Z,28.36
2023-05-07T03:27:22.598Z,28.33
2023-05-07T03:27:52.697Z,28.37
2023-05-07T03:28:22.773Z,28.34
2023-05-07T03:28:52.893Z,28.32
2023-05-07T03:29:22.848Z,28.34
2023-05-07T03:29:52.933Z,28.36
2023-05-07T03:30:23.018Z,28.33
2023-05-07T03:30:53.088Z,28.32
2023-05-07T03:31:23.186Z,28.33
2023-05-07T03:31:53.327Z,28.32
2023-05-07T03:32:23.299Z,28.32
2023-05-07T03:32:53.416Z,28.33
2023-05-07T03:33:23.507Z,28.33
2023-05-07T03:33:53.574Z,28.33
2023-05-07T03:34:23.661Z,28.34
2023-05-07T03:34:53.747Z,28.32
2023-05-07T03:35:23.830Z,28.33
2023-05-07T03:35:53.906Z,28.32
2023-05-07T03:36:24.091Z,28.33
2023-05-07T03:36:54.034Z,28.33
2023-05-07T03:37:24.149Z,28.33
2023-05-07T03:37:54.162Z,28.33
2023-05-07T03:38:24.158Z,28.30
2023-05-07T03:38:54.151Z,28.32
2023-05-07T03:39:24.147Z,28.32
2023-05-07T03:40:24.222Z,28.32
2023-05-07T03:40:54.344Z,28.34
2023-05-07T03:41:24.353Z,28.32
2023-05-07T03:41:54.460Z,28.30
2023-05-07T03:42:24.459Z,28.30
2023-05-07T03:43:24.533Z,28.30
2023-05-07T03:43:54.655Z,28.29
2023-05-07T03:44:24.642Z,28.32
2023-05-07T03:44:54.761Z,28.33
2023-05-07T03:45:24.900Z,28.32
2023-05-07T03:45:54.915Z,28.30
2023-05-07T03:46:24.987Z,28.32
2023-05-07T03:46:54.966Z,28.29
2023-05-07T03:47:25.007Z,28.30
2023-05-07T03:47:55.012Z,28.29
2023-05-07T03:48:25.012Z,28.30
2023-05-07T03:48:55.005Z,28.30
2023-05-07T03:49:25.120Z,28.29
2023-05-07T03:49:55.237Z,28.29
2023-05-07T03:50:25.356Z,28.30
2023-05-07T03:50:55.360Z,28.32
2023-05-07T03:51:25.489Z,28.30
2023-05-07T03:51:55.651Z,28.32
2023-05-07T03:52:25.499Z,28.30
2023-05-07T03:53:25.701Z,28.32
2023-05-07T03:53:55.700Z,28.29
2023-05-07T03:54:25.818Z,28.29
2023-05-07T03:54:55.937Z,28.30
2023-05-07T03:55:25.929Z,28.29
2023-05-07T03:56:26.034Z,28.30
2023-05-07T03:56:56.029Z,28.27
2023-05-07T03:57:56.097Z,28.32
2023-05-07T03:58:26.216Z,28.30
2023-05-07T03:58:56.337Z,28.29
2023-05-07T03:59:26.331Z,28.29
2023-05-07T04:00:26.408Z,28.27
2023-05-07T04:00:56.536Z,28.27
2023-05-07T04:01:26.531Z,28.30
2023-05-07T04:02:26.752Z,28.29
2023-05-07T04:02:56.734Z,28.27
2023-05-07T04:03:26.866Z,28.30
2023-05-07T04:03:57.013Z,28.29
2023-05-07T04:04:27.099Z,28.27
2023-05-07T04:04:56.989Z,28.29
2023-05-07T04:05:27.123Z,28.29
2023-05-07T04:05:57.156Z,28.29
2023-05-07T04:06:27.164Z,28.29
2023-05-07T04:06:57.162Z,28.24
2023-05-07T04:07:27.181Z,28.26
2023-05-07T04:07:57.296Z,28.29
2023-05-07T04:08:27.265Z,28.26
2023-05-07T04:09:27.361Z,28.27
2023-05-07T04:09:57.358Z,28.26
2023-05-07T04:10:27.359Z,28.27
2023-05-07T04:11:27.430Z,28.27
2023-05-07T04:11:57.434Z,28.26
2023-05-07T04:12:27.541Z,28.27
2023-05-07T04:12:57.688Z,28.27
2023-05-07T04:13:27.749Z,28.27
2023-05-07T04:13:57.853Z,28.26
2023-05-07T04:14:27.837Z,28.26
2023-05-07T04:14:57.859Z,28.23
2023-05-07T04:15:27.879Z,28.27
2023-05-07T04:15:57.870Z,28.26
2023-05-07T04:16:27.956Z,28.26
2023-05-07T04:16:58.040Z,28.26
2023-05-07T04:17:27.948Z,28.22
2023-05-07T04:17:58.010Z,28.24
2023-05-07T04:18:28.014Z,28.26
2023-05-07T04:18:58.131Z,28.23
2023-05-07T04:19:28.142Z,28.24
2023-05-07T04:19:58.150Z,28.24
2023-05-07T04:20:28.137Z,28.26
2023-05-07T04:20:58.258Z,28.26
2023-05-07T04:21:28.251Z,28.24
2023-05-07T04:21:58.376Z,28.24
2023-05-07T04:22:28.488Z,28.23
2023-05-07T04:22:58.635Z,28.26
2023-05-07T04:23:28.724Z,28.24
2023-05-07T04:23:58.841Z,28.23
2023-05-07T04:24:28.853Z,28.24
2023-05-07T04:24:58.846Z,28.24
2023-05-07T04:25:58.925Z,28.23
2023-05-07T04:26:29.046Z,28.26
2023-05-07T04:26:59.133Z,28.23
2023-05-07T04:27:29.217Z,28.22
2023-05-07T04:27:59.298Z,28.22
2023-05-07T04:28:29.380Z,28.22
2023-05-07T04:28:59.479Z,28.24
2023-05-07T04:29:29.597Z,28.22
2023-05-07T04:29:59.555Z,28.23
2023-05-07T04:30:29.644Z,28.23
2023-05-07T04:30:59.740Z,28.23
2023-05-07T04:31:29.821Z,28.20
2023-05-07T04:32:00.071Z,28.23
2023-05-07T04:32:29.974Z,28.22
2023-05-07T04:32:59.973Z,28.22
2023-05-07T04:33:29.997Z,28.22
2023-05-07T04:34:00.069Z,28.23
2023-05-07T04:34:30.149Z,28.22
2023-05-07T04:35:00.236Z,28.22
2023-05-07T04:35:30.318Z,28.22
2023-05-07T04:36:00.409Z,28.20
2023-05-07T04:36:30.498Z,28.23
2023-05-07T04:37:00.607Z,28.22
2023-05-07T04:37:30.595Z,28.20
2023-05-07T04:38:00.610Z,28.19
2023-05-07T04:38:30.700Z,28.22
2023-05-07T04:39:00.655Z,28.19
2023-05-07T04:40:00.735Z,28.20
2023-05-07T04:40:30.852Z,28.20
2023-05-07T04:41:00.847Z,28.20
2023-05-07T04:41:30.968Z,28.19
2023-05-07T04:42:01.096Z,28.20
2023-05-07T04:42:31.085Z,28.22
2023-05-07T04:43:01.140Z,28.22
2023-05-07T04:43:31.122Z,28.20
2023-05-07T04:44:31.203Z,28.20
2023-05-07T04:45:01.321Z,28.20
2023-05-07T04:45:31.439Z,28.22
2023-05-07T04:46:01.517Z,28.20
2023-05-07T04:46:31.558Z,28.22
2023-05-07T04:47:01.542Z,28.19
2023-05-07T04:47:31.753Z,28.20
2023-05-07T04:48:01.782Z,28.19
2023-05-07T04:48:31.812Z,28.19
2023-05-07T04:49:01.803Z,28.20
2023-05-07T04:49:31.929Z,28.22
2023-05-07T04:50:02.048Z,28.22
2023-05-07T04:50:32.037Z,28.19
2023-05-07T04:51:32.122Z,28.20
2023-05-07T04:52:02.263Z,28.20
2023-05-07T04:52:32.256Z,28.19
2023-05-07T04:53:32.341Z,28.19
2023-05-07T04:54:02.495Z,28.20
2023-05-07T04:54:32.471Z,28.20
2023-05-07T04:55:02.459Z,28.19
2023-05-07T04:55:32.469Z,28.20
2023-05-07T04:56:02.574Z,28.18
2023-05-07T04:56:32.519Z,28.19
2023-05-07T04:57:32.602Z,28.18
2023-05-07T04:58:02.584Z,28.19
2023-05-07T04:58:33.105Z,28.20
2023-05-07T04:59:02.774Z,28.19
2023-05-07T04:59:32.899Z,28.19
2023-05-07T05:00:03.011Z,28.19
2023-05-07T05:00:33.122Z,28.18
2023-05-07T05:01:03.168Z,28.20
2023-05-07T05:01:33.279Z,28.19
2023-05-07T05:02:03.294Z,28.19
2023-05-07T05:02:33.360Z,28.19
2023-05-07T05:03:03.533Z,28.19
2023-05-07T05:03:33.541Z,28.19
2023-05-07T05:04:03.606Z,28.19
2023-05-07T05:04:33.494Z,28.18
2023-05-07T05:05:03.605Z,28.19
2023-05-07T05:05:33.599Z,28.18
2023-05-07T05:06:03.726Z,28.19
2023-05-07T05:06:33.842Z,28.20
2023-05-07T05:07:03.838Z,28.18
2023-05-07T05:07:33.954Z,28.16
2023-05-07T05:08:04.081Z,28.20
2023-05-07T05:08:34.130Z,28.22
2023-05-07T05:09:04.131Z,28.19
2023-05-07T05:09:34.214Z,28.19
2023-05-07T05:10:04.244Z,28.19
2023-05-07T05:10:34.253Z,28.18
2023-05-07T05:11:04.413Z,28.19
2023-05-07T05:11:34.303Z,28.16
2023-05-07T05:12:34.477Z,28.19
2023-05-07T05:13:04.523Z,28.19
2023-05-07T05:13:34.503Z,28.19
2023-05-07T05:14:04.622Z,28.20
2023-05-07T05:14:34.738Z,28.18
2023-05-07T05:15:04.859Z,28.16
2023-05-07T05:15:34.994Z,28.18
2023-05-07T05:16:05.041Z,28.18
2023-05-07T05:16:35.075Z,28.18
2023-05-07T05:17:05.077Z,28.18
2023-05-07T05:17:35.211Z,28.18
2023-05-07T05:18:05.210Z,28.16
2023-05-07T05:18:35.318Z,28.16
2023-05-07T05:19:05.426Z,28.16
2023-05-07T05:19:35.543Z,28.16
2023-05-07T05:20:05.544Z,28.16
2023-05-07T05:20:35.551Z,28.18
2023-05-07T05:21:35.633Z,28.15
2023-05-07T05:22:05.752Z,28.18
2023-05-07T05:22:35.864Z,28.15
2023-05-07T05:23:05.982Z,28.18
2023-05-07T05:23:36.104Z,28.13
2023-05-07T05:24:06.226Z,28.18
2023-05-07T05:24:36.364Z,28.18
2023-05-07T05:25:06.339Z,28.15
2023-05-07T05:26:06.404Z,28.15
2023-05-07T05:26:36.401Z,28.16
2023-05-07T05:27:06.491Z,28.15
2023-05-07T05:27:36.571Z,28.16
2023-05-07T05:28:06.652Z,28.16
2023-05-07T05:28:36.736Z,28.18
2023-05-07T05:29:06.813Z,28.15
2023-05-07T05:29:36.892Z,28.16
2023-05-07T05:30:06.976Z,28.16
2023-05-07T05:30:37.061Z,28.18
2023-05-07T05:31:07.163Z,28.15
2023-05-07T05:31:37.308Z,28.18
2023-05-07T05:32:07.287Z,28.15
2023-05-07T05:32:37.367Z,28.18
2023-05-07T05:33:07.507Z,28.16
2023-05-07T05:33:37.559Z,28.18
2023-05-07T05:34:07.641Z,28.16
2023-05-07T05:34:37.741Z,28.18
2023-05-07T05:35:07.831Z,28.15
2023-05-07T05:35:37.911Z,28.16
2023-05-07T05:36:07.992Z,28.19
2023-05-07T05:36:38.071Z,28.16
2023-05-07T05:37:08.069Z,28.15
2023-05-07T05:37:38.194Z,28.16
2023-05-07T05:38:08.197Z,28.15
2023-05-07T05:38:38.201Z,28.15
2023-05-07T05:39:08.198Z,28.13
2023-05-07T05:39:38.260Z,28.16
2023-05-07T05:40:08.563Z,28.16
2023-05-07T05:40:38.402Z,28.13
2023-05-07T05:41:08.499Z,28.15
2023-05-07T05:41:38.511Z,28.16
2023-05-07T05:42:08.530Z,28.18
2023-05-07T05:42:38.655Z,28.13
2023-05-07T05:43:08.662Z,28.13
2023-05-07T05:43:38.686Z,28.15
2023-05-07T05:44:08.681Z,28.16
2023-05-07T05:44:38.669Z,28.15
2023-05-07T05:45:08.697Z,28.15
2023-05-07T05:46:08.784Z,28.13
2023-05-07T05:46:38.811Z,28.16
2023-05-07T05:47:08.904Z,28.15
2023-05-07T05:47:39.034Z,28.13
2023-05-07T05:48:09.076Z,28.15
2023-05-07T05:48:39.069Z,28.16
2023-05-07T05:49:09.063Z,28.18
2023-05-07T05:49:39.188Z,28.15
2023-05-07T05:50:09.291Z,28.16
2023-05-07T05:50:39.201Z,28.16
2023-05-07T05:51:09.201Z,28.16
2023-05-07T05:51:39.326Z,28.13
2023-05-07T05:52:11.422Z,28.16
2023-05-07T05:52:39.532Z,28.18
2023-05-07T05:53:09.525Z,28.13
2023-05-07T05:54:09.594Z,28.15
2023-05-07T05:54:39.597Z,28.15
2023-05-07T05:55:09.701Z,28.15
2023-05-07T05:55:39.729Z,28.13
2023-05-07T05:56:39.774Z,28.16
2023-05-07T05:57:09.765Z,28.16
2023-05-07T05:57:39.777Z,28.16
2023-05-07T05:58:09.777Z,28.15
2023-05-07T05:59:09.915Z,28.15
2023-05-07T05:59:39.931Z,28.16
2023-05-07T06:00:10.210Z,28.13
2023-05-07T06:00:39.967Z,28.15
2023-05-07T06:01:09.955Z,28.15
2023-05-07T06:01:40.107Z,28.18
2023-05-07T06:02:10.125Z,28.13
2023-05-07T06:02:40.223Z,28.13
2023-05-07T06:03:10.241Z,28.15
2023-05-07T06:03:40.240Z,28.16
2023-05-07T06:04:10.235Z,28.16
2023-05-07T06:04:40.442Z,28.16
2023-05-07T06:05:10.458Z,28.16
2023-05-07T06:05:40.448Z,28.15
2023-05-07T06:06:10.449Z,28.13
2023-05-07T06:06:40.562Z,28.16
2023-05-07T06:07:10.614Z,28.16
2023-05-07T06:07:40.599Z,28.18
2023-05-07T06:08:10.716Z,28.16
2023-05-07T06:08:40.843Z,28.16
2023-05-07T06:09:10.832Z,28.16
2023-05-07T06:09:40.952Z,28.18
2023-05-07T06:10:11.389Z,28.18
2023-05-07T06:10:41.191Z,28.15
2023-05-07T06:11:11.299Z,28.18
2023-05-07T06:11:41.272Z,28.16
2023-05-07T06:12:41.447Z,28.16
2023-05-07T06:13:11.523Z,28.15
2023-05-07T06:13:41.502Z,28.16
2023-05-07T06:14:11.496Z,28.18
2023-05-07T06:14:41.616Z,28.18
2023-05-07T06:15:11.739Z,28.15
2023-05-07T06:15:41.805Z,28.16
2023-05-07T06:16:11.977Z,28.18
2023-05-07T06:16:42.012Z,28.18
2023-05-07T06:17:12.010Z,28.18
2023-05-07T06:17:42.206Z,28.18
2023-05-07T06:18:12.253Z,28.15
2023-05-07T06:18:42.257Z,28.18
2023-05-07T06:19:12.252Z,28.16
2023-05-07T06:20:12.673Z,28.18
2023-05-07T06:20:42.379Z,28.13
2023-05-07T06:21:12.372Z,28.18
2023-05-07T06:22:12.454Z,28.16
2023-05-07T06:22:42.452Z,28.18
2023-05-07T06:23:42.521Z,28.15
2023-05-07T06:24:12.537Z,28.15
2023-05-07T06:25:12.609Z,28.15
2023-05-07T06:25:42.609Z,28.16
2023-05-07T06:26:12.705Z,28.16
2023-05-07T06:26:42.662Z,28.16
2023-05-07T06:27:12.736Z,28.13
2023-05-07T06:27:42.828Z,28.16
2023-05-07T06:28:12.899Z,28.16
2023-05-07T06:28:42.972Z,28.15
2023-05-07T06:29:13.063Z,28.15
2023-05-07T06:29:43.154Z,28.16
2023-05-07T06:30:13.397Z,28.15
2023-05-07T06:30:43.313Z,28.15
2023-05-07T06:31:13.381Z,28.16
2023-05-07T06:31:43.487Z,28.16
2023-05-07T06:32:13.527Z,28.16
2023-05-07T06:32:43.516Z,28.15
2023-05-07T06:33:13.590Z,28.15
2023-05-07T06:33:43.671Z,28.13
2023-05-07T06:34:13.764Z,28.16
2023-05-07T06:34:43.859Z,28.18
2023-05-07T06:35:13.937Z,28.18
2023-05-07T06:35:44.007Z,28.16
2023-05-07T06:36:14.090Z,28.13
2023-05-07T06:36:44.182Z,28.16
2023-05-07T06:37:14.172Z,28.16
2023-05-07T06:37:44.299Z,28.16
2023-05-07T06:38:14.411Z,28.13
2023-05-07T06:38:44.536Z,28.15
2023-05-07T06:39:14.661Z,28.15
2023-05-07T06:39:44.663Z,28.15
2023-05-07T06:40:14.787Z,28.16
2023-05-07T06:40:44.772Z,28.16
2023-05-07T06:41:14.893Z,28.15
2023-05-07T06:41:45.098Z,28.13
2023-05-07T06:42:15.061Z,28.18
2023-05-07T06:43:15.133Z,28.15
2023-05-07T06:43:45.247Z,28.15
2023-05-07T06:44:15.288Z,28.18
2023-05-07T06:44:45.278Z,28.16
2023-05-07T06:45:15.399Z,28.15
2023-05-07T06:45:45.397Z,28.15
2023-05-07T06:46:15.553Z,28.16
2023-05-07T06:46:45.592Z,28.16
2023-05-07T06:47:16.535Z,28.18
2023-05-07T06:47:45.809Z,28.15
2023-05-07T06:48:15.798Z,28.15
2023-05-07T06:48:45.920Z,28.13
2023-05-07T06:49:15.915Z,28.16
2023-05-07T06:49:45.909Z,28.16
2023-05-07T06:50:16.023Z,28.13
2023-05-07T06:50:46.016Z,28.15
2023-05-07T06:51:16.134Z,28.13
2023-05-07T06:51:46.268Z,28.16
2023-05-07T06:52:16.387Z,28.15
2023-05-07T06:52:46.376Z,28.16
2023-05-07T06:53:16.493Z,28.13
2023-05-07T06:53:46.492Z,28.15
2023-05-07T06:54:16.492Z,28.15
2023-05-07T06:55:16.561Z,28.13
2023-05-07T06:55:46.557Z,28.15
2023-05-07T06:56:16.680Z,28.15
2023-05-07T06:56:46.811Z,28.12
2023-05-07T06:57:16.943Z,28.15
2023-05-07T06:57:47.042Z,28.15
2023-05-07T06:58:17.040Z,28.16
2023-05-07T06:59:17.039Z,28.13
2023-05-07T06:59:47.029Z,28.15
2023-05-07T07:00:17.143Z,28.16
2023-05-07T07:00:47.136Z,28.16
2023-05-07T07:01:47.232Z,28.16